createdAt,value
2018-02-07T00:01:07.658Z,57.17
2018-02-07T00:03:35.065Z,45.30
2018-02-07T00:06:02.510Z,47.35
2018-02-07T00:08:29.995Z,49.45
2018-02-07T00:10:57.533Z,52.05
2018-02-07T00:13:24.977Z,40.05
2018-02-07T00:15:52.416Z,45.00
2018-02-07T00:18:19.850Z,37.28
2018-02-07T00:20:47.320Z,48.25
2018-02-07T00:23:14.756Z,47.22
2018-02-07T00:25:42.272Z,38.13
2018-02-07T00:28:09.732Z,45.08
2018-02-07T00:30:37.186Z,45.58
2018-02-07T00:33:04.640Z,42.95
2018-02-07T00:35:32.184Z,52.25
2018-02-07T00:37:59.654Z,37.67
2018-02-07T00:40:27.146Z,43.08
2018-02-07T00:42:54.616Z,44.40
2018-02-07T00:45:22.862Z,44.85
2018-02-07T00:47:51.140Z,41.58
2018-02-07T00:50:18.717Z,41.28
2018-02-07T00:52:46.157Z,46.00
2018-02-07T00:55:13.595Z,43.22
2018-02-07T00:57:41.028Z,49.53
2018-02-07T01:00:08.542Z,40.28
2018-02-07T01:02:36.701Z,39.53
2018-02-07T01:05:04.881Z,37.50
2018-02-07T01:07:33.142Z,38.97
2018-02-07T01:10:00.572Z,43.17
2018-02-07T01:12:28.028Z,39.10
2018-02-07T01:14:55.485Z,40.38
2018-02-07T01:17:23.693Z,40.38
2018-02-07T01:19:51.134Z,38.90
2018-02-07T01:22:19.332Z,40.88
2018-02-07T01:24:46.755Z,39.63
2018-02-07T01:27:14.202Z,49.60
2018-02-07T01:29:41.670Z,42.58
2018-02-07T01:32:09.157Z,40.05
2018-02-07T01:34:36.579Z,37.05
2018-02-07T01:37:04.085Z,38.25
2018-02-07T01:39:31.518Z,39.78
2018-02-07T01:41:59.701Z,42.08
2018-02-07T01:44:27.906Z,36.08
2018-02-07T01:46:55.362Z,38.95
2018-02-07T01:49:23.587Z,42.72
2018-02-07T01:51:51.038Z,40.33
2018-02-07T01:54:18.494Z,34.53
2018-02-07T01:56:46.681Z,34.30
2018-02-07T01:59:14.124Z,38.10
2018-02-07T02:01:41.579Z,38.22
2018-02-07T02:04:09.038Z,38.75
2018-02-07T02:06:36.461Z,33.03
2018-02-07T02:09:03.870Z,30.95
2018-02-07T02:11:31.306Z,33.33
2018-02-07T02:13:58.763Z,30.80
2018-02-07T02:16:26.945Z,31.80
2018-02-07T02:18:54.390Z,30.42
2018-02-07T02:21:21.898Z,36.53
2018-02-07T02:23:49.386Z,40.10
2018-02-07T02:26:16.822Z,34.40
2018-02-07T02:28:45.064Z,31.02
2018-02-07T02:31:12.466Z,31.40
2018-02-07T02:33:40.674Z,34.55
2018-02-07T02:36:20.054Z,32.00
2018-02-07T02:38:47.481Z,35.97
2018-02-07T02:41:15.701Z,30.30
2018-02-07T02:43:43.144Z,37.97
2018-02-07T02:46:11.322Z,35.83
2018-02-07T02:48:38.753Z,35.00
2018-02-07T02:51:06.214Z,33.55
2018-02-07T02:53:33.651Z,32.65
2018-02-07T02:56:01.122Z,34.75
2018-02-07T02:58:28.583Z,34.28
2018-02-07T03:00:56.021Z,32.78
2018-02-07T03:03:24.245Z,31.37
2018-02-07T03:05:51.693Z,31.27
2018-02-07T03:08:19.119Z,30.77
2018-02-07T03:10:46.661Z,31.00
2018-02-07T03:13:14.108Z,35.60
2018-02-07T03:15:41.529Z,27.62
2018-02-07T03:18:08.958Z,29.55
2018-02-07T03:20:36.387Z,30.12
2018-02-07T03:23:03.814Z,30.15
2018-02-07T03:25:31.253Z,35.67
2018-02-07T03:27:58.669Z,33.67
2018-02-07T03:30:26.205Z,28.17
2018-02-07T03:32:53.621Z,36.17
2018-02-07T03:35:21.047Z,34.75
2018-02-07T03:37:48.507Z,32.03
2018-02-07T03:40:15.943Z,33.08
2018-02-07T03:42:44.162Z,35.70
2018-02-07T03:45:12.425Z,30.30
2018-02-07T03:47:39.957Z,35.20
2018-02-07T03:50:07.409Z,28.83
2018-02-07T03:52:35.597Z,30.10
2018-02-07T03:55:03.072Z,31.50
2018-02-07T03:57:31.254Z,29.05
2018-02-07T03:59:58.737Z,33.38
2018-02-07T04:02:26.444Z,30.10
2018-02-07T04:04:53.904Z,37.67
2018-02-07T04:07:21.353Z,30.37
2018-02-07T04:09:48.812Z,29.80
2018-02-07T04:12:17.077Z,29.58
2018-02-07T04:14:45.321Z,31.10
2018-02-07T04:17:12.820Z,30.88
2018-02-07T04:19:40.322Z,30.77
2018-02-07T04:22:08.571Z,30.42
2018-02-07T04:24:36.074Z,31.33
2018-02-07T04:27:04.464Z,36.67
2018-02-07T04:29:32.114Z,37.03
2018-02-07T04:31:59.572Z,36.65
2018-02-07T04:34:27.010Z,28.05
2018-02-07T04:36:54.510Z,31.67
2018-02-07T04:39:21.926Z,35.15
2018-02-07T04:41:49.468Z,30.37
2018-02-07T04:44:16.962Z,31.67
2018-02-07T04:46:45.285Z,35.10
2018-02-07T04:49:13.505Z,30.23
2018-02-07T04:51:40.967Z,36.60
2018-02-07T04:54:08.393Z,32.33
2018-02-07T04:56:36.591Z,30.80
2018-02-07T04:59:04.110Z,29.00
2018-02-07T05:01:31.577Z,34.45
2018-02-07T05:03:59.129Z,30.95
2018-02-07T05:06:26.587Z,27.08
2018-02-07T05:08:54.105Z,37.80
2018-02-07T05:11:21.677Z,32.88
2018-02-07T05:13:49.202Z,38.45
2018-02-07T05:16:17.447Z,38.25
2018-02-07T05:18:44.905Z,32.40
2018-02-07T05:21:12.352Z,34.30
2018-02-07T05:23:39.798Z,35.50
2018-02-07T05:26:07.270Z,31.25
2018-02-07T05:28:35.560Z,32.53
2018-02-07T05:31:02.992Z,34.00
2018-02-07T05:33:30.448Z,30.95
2018-02-07T05:35:57.914Z,30.95
2018-02-07T05:38:25.369Z,31.83
2018-02-07T05:40:52.861Z,33.33
2018-02-07T05:43:20.350Z,29.87
2018-02-07T05:45:47.857Z,33.63
2018-02-07T05:48:15.311Z,32.10
2018-02-07T05:50:42.752Z,35.97
2018-02-07T05:53:10.309Z,28.30
2018-02-07T05:55:37.973Z,30.33
2018-02-07T05:58:05.537Z,33.00
2018-02-07T06:00:32.980Z,36.05
2018-02-07T06:03:00.410Z,32.13
2018-02-07T06:05:28.620Z,32.65
2018-02-07T06:07:56.090Z,35.42
2018-02-07T06:10:23.594Z,38.95
2018-02-07T06:12:51.202Z,35.45
2018-02-07T06:15:19.409Z,33.17
2018-02-07T06:17:46.862Z,35.45
2018-02-07T06:20:15.071Z,27.35
2018-02-07T06:22:42.522Z,32.60
2018-02-07T06:25:10.730Z,34.80
2018-02-07T06:27:38.189Z,35.55
2018-02-07T06:30:05.653Z,38.83
2018-02-07T06:32:33.916Z,30.65
2018-02-07T06:35:01.374Z,43.22
2018-02-07T06:37:28.840Z,37.08
2018-02-07T06:39:56.270Z,35.40
2018-02-07T06:42:23.718Z,35.00
2018-02-07T06:44:51.210Z,35.95
2018-02-07T06:47:18.631Z,37.88
2018-02-07T06:49:47.556Z,33.47
2018-02-07T06:52:14.994Z,34.40
2018-02-07T06:54:42.414Z,33.97
2018-02-07T06:57:10.674Z,36.20
2018-02-07T06:59:38.206Z,33.60
2018-02-07T07:02:05.636Z,36.10
2018-02-07T07:04:33.814Z,42.62
2018-02-07T07:07:01.315Z,38.08
2018-02-07T07:09:28.774Z,32.85
2018-02-07T07:11:56.223Z,35.58
2018-02-07T07:14:24.458Z,49.25
2018-02-07T07:16:51.874Z,32.42
2018-02-07T07:19:20.069Z,32.80
2018-02-07T07:21:48.315Z,40.58
2018-02-07T07:24:15.766Z,36.05
2018-02-07T07:26:43.201Z,38.90
2018-02-07T07:29:10.681Z,40.28
2018-02-07T07:31:38.914Z,37.75
2018-02-07T07:34:06.450Z,44.20
2018-02-07T07:36:33.878Z,35.00
2018-02-07T07:39:02.166Z,40.17
2018-02-07T07:41:29.634Z,40.53
2018-02-07T07:43:57.041Z,47.58
2018-02-07T07:46:24.473Z,38.03
2018-02-07T07:48:52.690Z,36.42
2018-02-07T07:51:20.158Z,38.90
2018-02-07T07:53:47.721Z,38.58
2018-02-07T07:56:15.919Z,37.58
2018-02-07T07:58:43.411Z,44.88
2018-02-07T08:01:10.831Z,38.03
2018-02-07T08:03:38.336Z,42.88
2018-02-07T08:06:05.790Z,51.00
2018-02-07T08:08:33.264Z,40.10
2018-02-07T08:11:01.485Z,36.45
2018-02-07T08:13:28.934Z,39.17
2018-02-07T08:15:56.399Z,44.85
2018-02-07T08:18:23.814Z,40.40
2018-02-07T08:20:51.305Z,39.05
2018-02-07T08:23:19.520Z,57.05
2018-02-07T08:25:46.949Z,50.08
2018-02-07T08:28:15.150Z,40.88
2018-02-07T08:30:43.355Z,41.90
2018-02-07T08:33:10.842Z,41.13
2018-02-07T08:35:38.262Z,40.05
2018-02-07T08:38:06.493Z,43.83
2018-02-07T08:40:33.950Z,46.53
2018-02-07T08:43:01.408Z,42.00
2018-02-07T08:45:28.821Z,46.20
2018-02-07T08:47:56.357Z,42.22
2018-02-07T08:50:24.524Z,48.13
2018-02-07T08:52:52.730Z,43.95
2018-02-07T08:55:20.178Z,51.85
2018-02-07T08:57:47.713Z,48.50
2018-02-07T09:00:15.120Z,45.05
2018-02-07T09:02:42.547Z,44.65
2018-02-07T09:05:09.981Z,43.55
2018-02-07T09:07:37.409Z,76.35
2018-02-07T09:10:05.628Z,42.03
2018-02-07T09:12:33.049Z,48.90
2018-02-07T09:15:00.477Z,41.00
2018-02-07T09:17:27.932Z,40.88
2018-02-07T09:19:55.500Z,41.70
2018-02-07T09:22:23.694Z,43.08
2018-02-07T09:24:51.260Z,50.45
2018-02-07T09:27:19.418Z,41.47
2018-02-07T09:29:47.621Z,42.45
2018-02-07T09:32:15.029Z,45.05
2018-02-07T09:34:42.464Z,44.35
2018-02-07T09:37:09.890Z,41.30
2018-02-07T09:39:37.307Z,42.50
2018-02-07T09:42:04.722Z,46.42
2018-02-07T09:44:32.145Z,46.95
2018-02-07T09:46:59.546Z,57.10
2018-02-07T09:49:26.995Z,46.63
2018-02-07T09:51:54.434Z,49.75
2018-02-07T09:54:21.842Z,46.90
2018-02-07T09:56:49.294Z,42.45
2018-02-07T09:59:16.749Z,50.03
2018-02-07T10:01:44.154Z,39.65
2018-02-07T10:04:11.624Z,54.22
2018-02-07T10:06:39.042Z,48.60
2018-02-07T10:09:06.552Z,43.17
2018-02-07T10:11:33.966Z,48.03
2018-02-07T10:14:02.170Z,47.25
2018-02-07T10:16:29.662Z,44.15
2018-02-07T10:18:57.101Z,50.35
2018-02-07T10:21:24.591Z,50.40
2018-02-07T10:23:51.991Z,48.15
2018-02-07T10:26:19.572Z,40.33
2018-02-07T10:28:46.981Z,44.50
2018-02-07T10:31:14.405Z,42.58
2018-02-07T10:33:41.820Z,50.55
2018-02-07T10:36:09.245Z,50.55
2018-02-07T10:38:36.678Z,41.55
2018-02-07T10:41:04.125Z,48.05
2018-02-07T10:43:31.546Z,43.42
2018-02-07T10:45:59.001Z,42.28
2018-02-07T10:48:26.501Z,63.67
2018-02-07T10:50:53.939Z,48.65
2018-02-07T10:53:21.378Z,45.30
2018-02-07T10:55:48.913Z,41.97
2018-02-07T10:58:17.109Z,51.25
2018-02-07T11:00:45.368Z,43.63
2018-02-07T11:03:12.839Z,50.42
2018-02-07T11:05:40.253Z,43.35
2018-02-07T11:08:08.486Z,46.58
2018-02-07T11:10:35.929Z,47.28
2018-02-07T11:13:03.324Z,47.85
2018-02-07T11:15:30.746Z,43.65
2018-02-07T11:17:58.165Z,45.53
2018-02-07T11:20:26.409Z,40.88
2018-02-07T11:22:53.836Z,46.53
2018-02-07T11:25:21.262Z,44.60
2018-02-07T11:27:48.687Z,48.03
2018-02-07T11:30:16.128Z,60.53
2018-02-07T11:32:43.537Z,43.10
2018-02-07T11:35:10.967Z,50.88
2018-02-07T11:37:39.169Z,47.88
2018-02-07T11:40:07.364Z,44.22
2018-02-07T11:42:34.802Z,39.85
2018-02-07T11:45:02.218Z,44.53
2018-02-07T11:47:29.694Z,39.20
2018-02-07T11:49:57.126Z,43.53
2018-02-07T11:52:25.301Z,45.17
2018-02-07T11:54:53.485Z,45.07
2018-02-07T11:57:20.915Z,44.70
2018-02-07T11:59:48.466Z,43.30
2018-02-07T12:02:15.862Z,45.77
2018-02-07T12:04:43.400Z,46.87
2018-02-07T12:07:11.574Z,44.63
2018-02-07T12:09:39.012Z,40.43
2018-02-07T12:12:06.562Z,42.30
2018-02-07T12:14:33.985Z,45.90
2018-02-07T12:17:02.175Z,36.63
2018-02-07T12:19:30.376Z,41.17
2018-02-07T12:21:57.850Z,40.03
2018-02-07T12:24:25.308Z,39.53
2018-02-07T12:26:53.737Z,37.97
2018-02-07T12:29:21.133Z,50.13
2018-02-07T12:31:49.362Z,43.97
2018-02-07T12:34:16.803Z,37.50
2018-02-07T12:36:45.027Z,42.93
2018-02-07T12:39:12.458Z,42.13
2018-02-07T12:41:40.672Z,40.23
2018-02-07T12:44:08.093Z,40.43
2018-02-07T12:46:35.517Z,38.10
2018-02-07T12:49:02.946Z,46.27
2018-02-07T12:51:31.176Z,42.13
2018-02-07T12:53:58.607Z,41.50
2018-02-07T12:56:26.822Z,39.93
2018-02-07T12:58:54.253Z,38.83
2018-02-07T13:01:22.503Z,40.43
2018-02-07T13:03:49.958Z,39.10
2018-02-07T13:06:17.410Z,37.60
2018-02-07T13:08:44.838Z,42.03
2018-02-07T13:11:13.035Z,38.93
2018-02-07T13:13:41.214Z,39.93
2018-02-07T13:16:09.405Z,48.67
2018-02-07T13:18:37.577Z,39.00
2018-02-07T13:21:05.790Z,40.50
2018-02-07T13:23:33.972Z,38.33
2018-02-07T13:26:02.173Z,38.77
2018-02-07T13:28:29.590Z,43.47
2018-02-07T13:30:57.115Z,37.30
2018-02-07T13:33:25.286Z,43.20
2018-02-07T13:35:53.484Z,39.60
2018-02-07T13:38:20.966Z,42.97
2018-02-07T13:40:48.678Z,45.40
2018-02-07T13:43:17.597Z,41.60
2018-02-07T13:45:45.789Z,41.33
2018-02-07T13:48:13.993Z,42.27
2018-02-07T13:50:41.470Z,37.90
2018-02-07T13:53:08.910Z,38.80
2018-02-07T13:55:37.125Z,43.63
2018-02-07T13:58:04.558Z,40.43
2018-02-07T14:00:39.073Z,45.20
2018-02-07T14:03:06.497Z,41.90
2018-02-07T14:05:33.921Z,43.57
2018-02-07T14:08:01.347Z,50.63
2018-02-07T14:10:28.790Z,48.40
2018-02-07T14:12:56.250Z,43.80
2018-02-07T14:15:24.534Z,40.60
2018-02-07T14:17:51.946Z,41.57
2018-02-07T14:20:19.516Z,48.77
2018-02-07T14:22:46.942Z,43.83
2018-02-07T14:25:14.354Z,50.10
2018-02-07T14:27:41.838Z,41.53
2018-02-07T14:30:09.267Z,42.37
2018-02-07T14:32:36.845Z,44.00
2018-02-07T14:35:05.014Z,47.13
2018-02-07T14:37:32.484Z,44.93
2018-02-07T14:40:00.653Z,46.57
2018-02-07T14:42:28.841Z,56.17
2018-02-07T14:44:57.045Z,41.93
2018-02-07T14:47:24.550Z,48.03
2018-02-07T14:49:52.010Z,52.47
2018-02-07T14:52:19.473Z,43.53
2018-02-07T14:54:46.932Z,43.00
2018-02-07T14:57:15.106Z,58.77
2018-02-07T14:59:42.582Z,49.87
2018-02-07T15:02:10.069Z,44.00
2018-02-07T15:04:37.510Z,65.33
2018-02-07T15:07:05.673Z,55.37
2018-02-07T15:09:33.196Z,52.60
2018-02-07T15:12:00.650Z,51.40
2018-02-07T15:14:28.120Z,49.58
2018-02-07T15:16:55.591Z,47.80
2018-02-07T15:19:23.009Z,48.47
2018-02-07T15:21:50.440Z,48.55
2018-02-07T15:24:17.901Z,50.35
2018-02-07T15:26:45.310Z,56.28
2018-02-07T15:29:12.742Z,48.33
2018-02-07T15:31:40.206Z,46.88
2018-02-07T15:34:07.640Z,51.67
2018-02-07T15:36:35.238Z,54.90
2018-02-07T15:39:03.426Z,57.83
2018-02-07T15:41:30.860Z,60.60
2018-02-07T15:43:59.037Z,57.75
2018-02-07T15:46:26.578Z,53.28
2018-02-07T15:48:54.062Z,52.67
2018-02-07T15:51:21.498Z,55.70
2018-02-07T15:53:48.986Z,51.47
2018-02-07T15:56:16.417Z,47.50
2018-02-07T15:58:44.091Z,48.28
2018-02-07T16:01:11.665Z,45.55
2018-02-07T16:03:39.961Z,56.00
2018-02-07T16:06:07.385Z,53.55
2018-02-07T16:08:34.806Z,56.05
2018-02-07T16:11:02.219Z,51.97
2018-02-07T16:13:29.646Z,48.25
2018-02-07T16:15:57.077Z,62.85
2018-02-07T16:18:25.293Z,59.95
2018-02-07T16:20:52.781Z,58.05
2018-02-07T16:23:20.205Z,59.10
2018-02-07T16:25:47.727Z,66.20
2018-02-07T16:28:15.837Z,52.88
2018-02-07T16:30:44.031Z,61.63
2018-02-07T16:33:12.237Z,57.50
2018-02-07T16:35:40.460Z,55.83
2018-02-07T16:38:07.929Z,54.70
2018-02-07T16:40:35.366Z,57.20
2018-02-07T16:43:02.811Z,54.40
2018-02-07T16:45:30.238Z,48.60
2018-02-07T16:47:57.646Z,55.45
2018-02-07T16:50:25.822Z,54.42
2018-02-07T16:52:53.306Z,56.70
2018-02-07T16:55:20.852Z,59.10
2018-02-07T16:57:48.271Z,53.95
2018-02-07T17:00:15.705Z,52.83
2018-02-07T17:02:43.133Z,52.35
2018-02-07T17:05:10.565Z,52.47
2018-02-07T17:07:38.510Z,52.05
2018-02-07T17:10:06.042Z,57.53
2018-02-07T17:12:33.446Z,56.63
2018-02-07T17:15:00.860Z,56.25
2018-02-07T17:17:28.334Z,57.53
2018-02-07T17:19:55.750Z,56.85
2018-02-07T17:22:23.941Z,51.33
2018-02-07T17:24:51.361Z,50.88
2018-02-07T17:27:18.786Z,53.17
2018-02-07T17:29:46.977Z,62.47
2018-02-07T17:32:15.522Z,52.62
2018-02-07T17:34:43.018Z,56.85
2018-02-07T17:37:10.430Z,51.58
2018-02-07T17:39:37.912Z,62.60
2018-02-07T17:42:05.369Z,60.47
2018-02-07T17:44:32.838Z,55.03
2018-02-07T17:47:00.305Z,57.10
2018-02-07T17:49:27.733Z,53.13
2018-02-07T17:51:55.144Z,62.95
2018-02-07T17:54:22.637Z,60.00
2018-02-07T17:56:50.097Z,61.88
2018-02-07T17:59:17.538Z,62.67
2018-02-07T18:01:45.744Z,63.08
2018-02-07T18:04:13.174Z,57.00
2018-02-07T18:06:41.394Z,64.97
2018-02-07T18:09:08.868Z,62.03
2018-02-07T18:11:37.155Z,68.75
2018-02-07T18:14:04.574Z,68.62
2018-02-07T18:16:31.998Z,59.53
2018-02-07T18:18:59.457Z,65.03
2018-02-07T18:21:26.881Z,66.95
2018-02-07T18:23:54.303Z,72.65
2018-02-07T18:26:21.734Z,69.32
2018-02-07T18:28:49.930Z,77.32
2018-02-07T18:31:18.157Z,73.57
2018-02-07T18:33:45.612Z,75.85
2018-02-07T18:36:13.017Z,76.78
2018-02-07T18:38:40.466Z,69.20
2018-02-07T18:41:07.918Z,61.33
2018-02-07T18:43:35.386Z,60.17
2018-02-07T18:46:02.846Z,69.28
2018-02-07T18:48:30.275Z,61.67
2018-02-07T18:50:57.713Z,71.05
2018-02-07T18:53:25.130Z,60.70
2018-02-07T18:55:53.320Z,67.62
2018-02-07T18:58:21.533Z,64.90
2018-02-07T19:00:48.954Z,65.10
2018-02-07T19:03:17.146Z,60.72
2018-02-07T19:05:45.321Z,68.50
2018-02-07T19:08:12.755Z,62.88
2018-02-07T19:10:40.180Z,50.35
2018-02-07T19:13:08.358Z,69.07
2018-02-07T19:15:36.532Z,62.55
2018-02-07T19:18:04.039Z,61.47
2018-02-07T19:20:31.513Z,60.95
2018-02-07T19:22:58.929Z,64.28
2018-02-07T19:25:26.358Z,65.65
2018-02-07T19:27:53.793Z,65.03
2018-02-07T19:30:22.017Z,67.50
2018-02-07T19:32:49.427Z,63.45
2018-02-07T19:35:16.849Z,60.28
2018-02-07T19:37:44.311Z,65.43
2018-02-07T19:40:11.764Z,69.82
2018-02-07T19:42:39.174Z,62.92
2018-02-07T19:45:06.602Z,68.68
2018-02-07T19:47:34.054Z,71.12
2018-02-07T19:50:01.553Z,68.20
2018-02-07T19:52:29.014Z,68.60
2018-02-07T19:54:56.507Z,72.93
2018-02-07T19:57:24.043Z,68.20
2018-02-07T19:59:51.499Z,66.22
2018-02-07T20:02:19.098Z,64.62
2018-02-07T20:04:47.261Z,67.95
2018-02-07T20:07:15.458Z,69.03
2018-02-07T20:09:42.889Z,71.72
2018-02-07T20:12:10.329Z,70.25
2018-02-07T20:14:37.778Z,63.50
2018-02-07T20:17:05.189Z,65.75
2018-02-07T20:19:32.591Z,64.47
2018-02-07T20:22:00.802Z,66.45
2018-02-07T20:24:28.222Z,72.62
2018-02-07T20:26:55.674Z,69.82
2018-02-07T20:29:23.065Z,71.85
2018-02-07T20:31:51.290Z,77.53
2018-02-07T20:34:18.699Z,76.18
2018-02-07T20:36:46.220Z,75.70
2018-02-07T20:39:14.518Z,64.10
2018-02-07T20:41:41.938Z,79.93
2018-02-07T20:44:09.342Z,74.32
2018-02-07T20:46:36.810Z,73.70
2018-02-07T20:49:04.243Z,68.30
2018-02-07T20:51:31.699Z,68.70
2018-02-07T20:53:59.106Z,70.75
2018-02-07T20:56:26.581Z,64.95
2018-02-07T20:58:54.007Z,68.25
2018-02-07T21:01:21.459Z,59.60
2018-02-07T21:03:48.886Z,72.03
2018-02-07T21:06:16.361Z,63.72
2018-02-07T21:08:43.802Z,69.15
2018-02-07T21:11:12.107Z,61.40
2018-02-07T21:13:40.282Z,60.65
2018-02-07T21:16:08.510Z,66.50
2018-02-07T21:18:35.922Z,72.18
2018-02-07T21:21:04.163Z,64.90
2018-02-07T21:23:31.610Z,61.55
2018-02-07T21:25:59.041Z,59.88
2018-02-07T21:28:26.574Z,68.30
2018-02-07T21:30:54.000Z,66.12
2018-02-07T21:33:22.203Z,54.03
2018-02-07T21:35:50.181Z,70.18
2018-02-07T21:38:17.656Z,63.15
2018-02-07T21:40:45.077Z,62.83
2018-02-07T21:43:12.510Z,61.75
2018-02-07T21:45:39.966Z,71.78
2018-02-07T21:48:07.426Z,71.55
2018-02-07T21:50:34.900Z,58.60
2018-02-07T21:53:02.326Z,59.13
2018-02-07T21:55:29.755Z,66.87
2018-02-07T21:57:57.171Z,65.43
2018-02-07T22:00:25.417Z,62.15
2018-02-07T22:02:52.865Z,57.30
2018-02-07T22:05:20.436Z,63.63
2018-02-07T22:07:47.879Z,69.93
2018-02-07T22:10:16.187Z,65.07
2018-02-07T22:12:43.618Z,62.65
2018-02-07T22:15:11.868Z,68.07
2018-02-07T22:17:39.289Z,65.95
2018-02-07T22:20:07.477Z,59.33
2018-02-07T22:22:35.764Z,57.80
2018-02-07T22:25:03.974Z,61.60
2018-02-07T22:27:31.414Z,60.33
2018-02-07T22:29:59.605Z,65.93
2018-02-07T22:32:27.813Z,63.92
2018-02-07T22:34:55.279Z,65.55
2018-02-07T22:37:22.761Z,68.03
2018-02-07T22:39:50.235Z,68.72
2018-02-07T22:42:17.637Z,63.87
2018-02-07T22:44:45.070Z,67.12
2018-02-07T22:47:12.485Z,59.83
2018-02-07T22:49:39.930Z,62.50
2018-02-07T22:52:07.332Z,60.88
2018-02-07T22:54:35.518Z,55.78
2018-02-07T22:57:03.695Z,59.95
2018-02-07T22:59:31.950Z,58.20
2018-02-07T23:01:59.361Z,58.78
2018-02-07T23:04:26.920Z,66.87
2018-02-07T23:06:54.387Z,67.03
2018-02-07T23:09:21.928Z,56.35
2018-02-07T23:11:50.167Z,59.55
2018-02-07T23:14:17.613Z,63.78
2018-02-07T23:16:45.033Z,59.92
2018-02-07T23:19:12.485Z,67.22
2018-02-07T23:21:39.920Z,57.50
2018-02-07T23:24:07.390Z,63.28
2018-02-07T23:26:34.810Z,60.95
2018-02-07T23:29:03.018Z,50.15
2018-02-07T23:31:31.212Z,54.67
2018-02-07T23:33:59.426Z,55.38
2018-02-07T23:36:26.990Z,55.67
2018-02-07T23:38:54.463Z,58.55
2018-02-07T23:41:21.922Z,58.33
2018-02-07T23:43:49.398Z,50.75
2018-02-07T23:46:16.818Z,48.90
2018-02-07T23:48:44.267Z,59.38
2018-02-07T23:51:11.696Z,56.50
2018-02-07T23:53:39.125Z,53.80
2018-02-07T23:56:06.551Z,52.20
2018-02-07T23:58:33.992Z,49.95
